sensor_id;sensor_type;location;lat;lon;timestamp;pressure;altitude;pressure_sealevel;temperature;humidity
64679;BME280;51094;53.864;27.676;2023-03-15T00:01:13;97676.84;;;8.46;54.40
64679;BME280;51094;53.864;27.676;2023-03-15T00:03:41;97700.03;;;8.48;54.37
64679;BME280;51094;53.864;27.676;2023-03-15T00:06:09;97661.97;;;8.39;54.58
64679;BME280;51094;53.864;27.676;2023-03-15T00:08:36;97627.41;;;8.19;54.19
64679;BME280;51094;53.864;27.676;2023-03-15T00:11:03;97650.78;;;8.38;54.17
64679;BME280;51094;53.864;27.676;2023-03-15T00:13:30;97484.31;;;7.28;54.03
64679;BME280;51094;53.864;27.676;2023-03-15T00:15:59;97649.81;;;8.39;54.66
64679;BME280;51094;53.864;27.676;2023-03-15T00:18:27;97594.31;;;7.82;54.50
64679;BME280;51094;53.864;27.676;2023-03-15T00:20:54;97573.22;;;7.87;54.84
64679;BME280;51094;53.864;27.676;2023-03-15T00:23:21;97649.81;;;8.39;53.92
64679;BME280;51094;53.864;27.676;2023-03-15T00:25:49;97649.69;;;8.41;54.07
64679;BME280;51094;53.864;27.676;2023-03-15T00:28:17;97590.03;;;8.02;54.38
64679;BME280;51094;53.864;27.676;2023-03-15T00:30:44;97650.22;;;8.34;54.76
64679;BME280;51094;53.864;27.676;2023-03-15T00:33:14;97607.06;;;8.05;54.45
64679;BME280;51094;53.864;27.676;2023-03-15T00:35:42;97639.94;;;8.23;54.63
64679;BME280;51094;53.864;27.676;2023-03-15T00:38:09;97652.22;;;8.31;54.55
64679;BME280;51094;53.864;27.676;2023-03-15T00:40:37;97645.19;;;8.33;55.07
64679;BME280;51094;53.864;27.676;2023-03-15T00:43:04;97641.25;;;8.39;54.88
64679;BME280;51094;53.864;27.676;2023-03-15T00:45:31;97655.97;;;8.38;54.60
64679;BME280;51094;53.864;27.676;2023-03-15T00:47:58;97607.75;;;8.07;55.11
64679;BME280;51094;53.864;27.676;2023-03-15T00:50:25;97651.81;;;8.26;54.54
64679;BME280;51094;53.864;27.676;2023-03-15T00:52:52;97649.78;;;8.20;55.03
64679;BME280;51094;53.864;27.676;2023-03-15T00:55:19;97668.03;;;8.28;55.37
64679;BME280;51094;53.864;27.676;2023-03-15T00:57:47;97657.66;;;8.28;54.77
64679;BME280;51094;53.864;27.676;2023-03-15T01:00:20;97669.66;;;8.29;54.73
64679;BME280;51094;53.864;27.676;2023-03-15T01:02:51;97634.03;;;8.02;54.93
64679;BME280;51094;53.864;27.676;2023-03-15T01:05:19;97654.34;;;8.07;54.93
64679;BME280;51094;53.864;27.676;2023-03-15T01:07:46;97599.84;;;7.58;54.96
64679;BME280;51094;53.864;27.676;2023-03-15T01:10:14;97676.56;;;8.09;55.31
64679;BME280;51094;53.864;27.676;2023-03-15T01:12:41;97600.97;;;7.65;55.59
64679;BME280;51094;53.864;27.676;2023-03-15T01:15:13;97702.75;;;8.16;55.61
64679;BME280;51094;53.864;27.676;2023-03-15T01:17:40;97657.34;;;8.02;56.10
64679;BME280;51094;53.864;27.676;2023-03-15T01:20:09;97664.44;;;8.10;56.26
64679;BME280;51094;53.864;27.676;2023-03-15T01:22:37;97680.97;;;8.18;55.75
64679;BME280;51094;53.864;27.676;2023-03-15T01:25:06;97680.28;;;8.16;55.66
64679;BME280;51094;53.864;27.676;2023-03-15T01:27:33;97676.06;;;8.15;55.84
64679;BME280;51094;53.864;27.676;2023-03-15T01:30:00;97672.09;;;8.11;55.97
64679;BME280;51094;53.864;27.676;2023-03-15T01:32:27;97571.34;;;7.49;55.97
64679;BME280;51094;53.864;27.676;2023-03-15T01:34:54;97659.53;;;8.07;55.98
64679;BME280;51094;53.864;27.676;2023-03-15T01:37:21;97613.94;;;7.85;56.22
64679;BME280;51094;53.864;27.676;2023-03-15T01:39:50;97690.78;;;8.24;56.24
64679;BME280;51094;53.864;27.676;2023-03-15T01:42:17;97636.03;;;7.89;56.50
64679;BME280;51094;53.864;27.676;2023-03-15T01:44:58;97650.56;;;7.80;56.20
64679;BME280;51094;53.864;27.676;2023-03-15T01:47:27;97708.59;;;8.08;57.05
64679;BME280;51094;53.864;27.676;2023-03-15T01:50:14;97715.09;;;8.02;57.38
64679;BME280;51094;53.864;27.676;2023-03-15T01:52:41;97647.16;;;7.49;58.70
64679;BME280;51094;53.864;27.676;2023-03-15T01:55:17;97629.81;;;7.30;59.80
64679;BME280;51094;53.864;27.676;2023-03-15T01:57:56;97721.53;;;7.78;59.42
64679;BME280;51094;53.864;27.676;2023-03-15T02:00:26;97615.59;;;7.04;60.85
64679;BME280;51094;53.864;27.676;2023-03-15T02:03:18;97708.22;;;7.41;61.82
64679;BME280;51094;53.864;27.676;2023-03-15T02:05:56;97644.81;;;7.16;61.89
64679;BME280;51094;53.864;27.676;2023-03-15T02:08:44;97711.63;;;7.41;62.18
64679;BME280;51094;53.864;27.676;2023-03-15T02:11:12;97711.00;;;7.49;62.20
64679;BME280;51094;53.864;27.676;2023-03-15T02:13:40;97713.84;;;7.46;63.30
64679;BME280;51094;53.864;27.676;2023-03-15T02:16:08;97591.63;;;6.60;63.34
64679;BME280;51094;53.864;27.676;2023-03-15T02:18:41;97672.91;;;7.09;63.73
64679;BME280;51094;53.864;27.676;2023-03-15T02:21:30;97719.97;;;7.45;63.40
64679;BME280;51094;53.864;27.676;2023-03-15T02:26:47;97689.56;;;7.37;63.47
64679;BME280;51094;53.864;27.676;2023-03-15T02:29:16;97717.50;;;7.43;63.68
64679;BME280;51094;53.864;27.676;2023-03-15T02:31:43;97700.59;;;7.18;63.51
64679;BME280;51094;53.864;27.676;2023-03-15T02:34:10;97683.03;;;7.01;63.57
64679;BME280;51094;53.864;27.676;2023-03-15T02:36:37;97730.81;;;7.18;63.88
64679;BME280;51094;53.864;27.676;2023-03-15T02:39:19;97670.75;;;6.61;64.59
64679;BME280;51094;53.864;27.676;2023-03-15T02:41:49;97728.63;;;7.02;64.16
64679;BME280;51094;53.864;27.676;2023-03-15T02:44:22;97731.34;;;7.00;64.75
64679;BME280;51094;53.864;27.676;2023-03-15T02:46:54;97668.75;;;6.65;64.70
64679;BME280;51094;53.864;27.676;2023-03-15T02:49:26;97682.69;;;6.74;64.71
64679;BME280;51094;53.864;27.676;2023-03-15T02:51:53;97733.03;;;7.22;64.26
64679;BME280;51094;53.864;27.676;2023-03-15T02:54:20;97686.66;;;6.89;63.67
64679;BME280;51094;53.864;27.676;2023-03-15T02:56:46;97675.06;;;6.72;63.87
64679;BME280;51094;53.864;27.676;2023-03-15T02:59:13;97713.38;;;6.99;64.64
64679;BME280;51094;53.864;27.676;2023-03-15T03:01:40;97734.94;;;7.09;64.25
64679;BME280;51094;53.864;27.676;2023-03-15T03:04:07;97699.69;;;6.87;64.26
64679;BME280;51094;53.864;27.676;2023-03-15T03:06:34;97712.72;;;6.86;64.59
64679;BME280;51094;53.864;27.676;2023-03-15T03:09:02;97660.44;;;6.50;63.98
64679;BME280;51094;53.864;27.676;2023-03-15T03:11:29;97678.63;;;6.60;63.61
64679;BME280;51094;53.864;27.676;2023-03-15T03:13:56;97738.75;;;6.94;63.45
64679;BME280;51094;53.864;27.676;2023-03-15T03:16:23;97720.50;;;6.75;63.63
64679;BME280;51094;53.864;27.676;2023-03-15T03:18:50;97676.22;;;6.47;63.06
64679;BME280;51094;53.864;27.676;2023-03-15T03:21:17;97672.41;;;6.51;62.95
64679;BME280;51094;53.864;27.676;2023-03-15T03:23:44;97675.41;;;6.47;62.62
64679;BME280;51094;53.864;27.676;2023-03-15T03:26:17;97718.03;;;6.73;62.94
64679;BME280;51094;53.864;27.676;2023-03-15T03:28:46;97729.19;;;6.85;62.97
64679;BME280;51094;53.864;27.676;2023-03-15T03:31:20;97747.78;;;6.99;62.52
64679;BME280;51094;53.864;27.676;2023-03-15T03:33:49;97763.41;;;6.98;62.15
64679;BME280;51094;53.864;27.676;2023-03-15T03:36:16;97706.44;;;6.67;62.58
64679;BME280;51094;53.864;27.676;2023-03-15T03:38:44;97723.09;;;6.63;62.46
64679;BME280;51094;53.864;27.676;2023-03-15T03:41:13;97747.41;;;6.72;62.31
64679;BME280;51094;53.864;27.676;2023-03-15T03:43:40;97680.22;;;6.29;62.34
64679;BME280;51094;53.864;27.676;2023-03-15T03:46:08;97767.72;;;6.77;62.48
64679;BME280;51094;53.864;27.676;2023-03-15T03:48:39;97742.59;;;6.56;62.04
64679;BME280;51094;53.864;27.676;2023-03-15T03:51:06;97780.16;;;6.83;62.11
64679;BME280;51094;53.864;27.676;2023-03-15T03:53:32;97799.28;;;6.80;62.00
64679;BME280;51094;53.864;27.676;2023-03-15T03:55:59;97792.59;;;6.78;62.28
64679;BME280;51094;53.864;27.676;2023-03-15T03:58:29;97786.63;;;6.77;62.25
64679;BME280;51094;53.864;27.676;2023-03-15T04:01:00;97779.34;;;6.71;61.62
64679;BME280;51094;53.864;27.676;2023-03-15T04:03:30;97793.78;;;6.74;61.84
64679;BME280;51094;53.864;27.676;2023-03-15T04:06:04;97795.31;;;6.76;61.88
64679;BME280;51094;53.864;27.676;2023-03-15T04:08:35;97772.44;;;6.60;61.96
64679;BME280;51094;53.864;27.676;2023-03-15T04:11:02;97783.22;;;6.54;61.38
64679;BME280;51094;53.864;27.676;2023-03-15T04:13:32;97795.56;;;6.62;61.94
64679;BME280;51094;53.864;27.676;2023-03-15T04:16:00;97807.75;;;6.60;61.71
64679;BME280;51094;53.864;27.676;2023-03-15T04:18:35;97733.25;;;6.11;61.86
64679;BME280;51094;53.864;27.676;2023-03-15T04:21:03;97798.28;;;6.49;62.02
64679;BME280;51094;53.864;27.676;2023-03-15T04:23:29;97812.38;;;6.45;62.24
64679;BME280;51094;53.864;27.676;2023-03-15T04:26:15;97825.28;;;6.45;61.88
64679;BME280;51094;53.864;27.676;2023-03-15T04:29:02;97822.34;;;6.50;62.10
64679;BME280;51094;53.864;27.676;2023-03-15T04:31:43;97803.19;;;6.30;62.11
64679;BME280;51094;53.864;27.676;2023-03-15T04:34:19;97829.97;;;6.40;61.99
64679;BME280;51094;53.864;27.676;2023-03-15T04:36:58;97821.75;;;6.24;63.03
64679;BME280;51094;53.864;27.676;2023-03-15T04:39:45;97732.50;;;5.64;62.86
64679;BME280;51094;53.864;27.676;2023-03-15T04:42:47;97806.13;;;6.03;64.67
64679;BME280;51094;53.864;27.676;2023-03-15T04:45:23;97808.06;;;5.88;64.94
64679;BME280;51094;53.864;27.676;2023-03-15T04:48:09;97830.91;;;5.82;65.66
64679;BME280;51094;53.864;27.676;2023-03-15T04:50:50;97836.00;;;5.94;66.40
64679;BME280;51094;53.864;27.676;2023-03-15T04:53:38;97768.69;;;5.51;66.73
64679;BME280;51094;53.864;27.676;2023-03-15T04:56:30;97835.78;;;5.97;66.82
64679;BME280;51094;53.864;27.676;2023-03-15T04:59:18;97765.09;;;5.54;67.76
64679;BME280;51094;53.864;27.676;2023-03-15T05:02:16;97837.38;;;5.87;68.07
64679;BME280;51094;53.864;27.676;2023-03-15T05:05:01;97819.84;;;5.68;67.74
64679;BME280;51094;53.864;27.676;2023-03-15T05:07:39;97869.44;;;5.72;69.34
64679;BME280;51094;53.864;27.676;2023-03-15T05:10:19;97838.38;;;5.39;69.60
64679;BME280;51094;53.864;27.676;2023-03-15T05:13:07;97864.38;;;5.59;70.09
64679;BME280;51094;53.864;27.676;2023-03-15T05:15:54;97798.81;;;5.16;70.23
64679;BME280;51094;53.864;27.676;2023-03-15T05:18:36;97789.34;;;5.27;69.72
64679;BME280;51094;53.864;27.676;2023-03-15T05:21:25;97805.19;;;5.34;69.83
64679;BME280;51094;53.864;27.676;2023-03-15T05:24:21;97858.41;;;5.59;70.35
64679;BME280;51094;53.864;27.676;2023-03-15T05:27:13;97844.19;;;5.64;70.47
64679;BME280;51094;53.864;27.676;2023-03-15T05:30:00;97836.13;;;5.58;70.40
64679;BME280;51094;53.864;27.676;2023-03-15T05:32:47;97839.53;;;5.69;69.93
64679;BME280;51094;53.864;27.676;2023-03-15T05:35:37;97849.94;;;5.57;70.07
64679;BME280;51094;53.864;27.676;2023-03-15T05:38:22;97875.56;;;5.82;70.16
64679;BME280;51094;53.864;27.676;2023-03-15T05:41:11;97885.06;;;5.82;70.31
64679;BME280;51094;53.864;27.676;2023-03-15T05:44:06;97887.75;;;5.80;69.79
64679;BME280;51094;53.864;27.676;2023-03-15T05:47:00;97891.75;;;5.84;70.91
64679;BME280;51094;53.864;27.676;2023-03-15T05:49:47;97828.81;;;5.52;70.91
64679;BME280;51094;53.864;27.676;2023-03-15T05:52:32;97870.81;;;5.89;70.56
64679;BME280;51094;53.864;27.676;2023-03-15T05:55:22;97882.50;;;6.06;69.92
64679;BME280;51094;53.864;27.676;2023-03-15T05:58:02;97885.63;;;6.09;69.14
64679;BME280;51094;53.864;27.676;2023-03-15T06:00:47;97886.59;;;6.19;69.28
64679;BME280;51094;53.864;27.676;2023-03-15T06:03:30;97910.88;;;6.17;69.13
64679;BME280;51094;53.864;27.676;2023-03-15T06:06:07;97869.91;;;5.90;69.36
64679;BME280;51094;53.864;27.676;2023-03-15T06:08:38;97893.97;;;6.02;69.54
64679;BME280;51094;53.864;27.676;2023-03-15T06:11:05;97904.53;;;6.10;69.11
64679;BME280;51094;53.864;27.676;2023-03-15T06:13:32;97896.06;;;5.96;69.02
64679;BME280;51094;53.864;27.676;2023-03-15T06:16:04;97903.47;;;6.12;69.10
64679;BME280;51094;53.864;27.676;2023-03-15T06:18:34;97870.25;;;5.96;68.78
64679;BME280;51094;53.864;27.676;2023-03-15T06:21:01;97908.25;;;6.41;68.57
64679;BME280;51094;53.864;27.676;2023-03-15T06:23:28;97851.03;;;6.12;68.45
64679;BME280;51094;53.864;27.676;2023-03-15T06:25:54;97895.59;;;6.49;68.08
64679;BME280;51094;53.864;27.676;2023-03-15T06:28:21;97910.50;;;6.79;68.16
64679;BME280;51094;53.864;27.676;2023-03-15T06:30:53;97919.31;;;6.87;67.57
64679;BME280;51094;53.864;27.676;2023-03-15T06:33:25;97934.00;;;6.87;66.30
64679;BME280;51094;53.864;27.676;2023-03-15T06:35:52;97828.66;;;6.23;65.93
64679;BME280;51094;53.864;27.676;2023-03-15T06:38:19;97846.03;;;6.21;66.27
64679;BME280;51094;53.864;27.676;2023-03-15T06:40:47;97926.69;;;6.70;66.06
64679;BME280;51094;53.864;27.676;2023-03-15T06:43:14;97937.28;;;6.78;65.39
64679;BME280;51094;53.864;27.676;2023-03-15T06:45:45;97883.63;;;6.48;65.54
64679;BME280;51094;53.864;27.676;2023-03-15T06:48:14;97944.22;;;6.88;65.08
64679;BME280;51094;53.864;27.676;2023-03-15T06:50:41;97941.13;;;6.94;65.64
64679;BME280;51094;53.864;27.676;2023-03-15T06:53:14;97945.97;;;6.99;64.52
64679;BME280;51094;53.864;27.676;2023-03-15T06:55:41;97922.72;;;6.88;64.82
64679;BME280;51094;53.864;27.676;2023-03-15T06:58:08;97907.44;;;6.74;63.86
64679;BME280;51094;53.864;27.676;2023-03-15T07:00:35;97951.38;;;7.07;64.10
64679;BME280;51094;53.864;27.676;2023-03-15T07:03:02;97937.50;;;7.08;63.91
64679;BME280;51094;53.864;27.676;2023-03-15T07:05:29;97944.44;;;7.30;63.15
64679;BME280;51094;53.864;27.676;2023-03-15T07:07:57;97957.34;;;7.19;62.66
64679;BME280;51094;53.864;27.676;2023-03-15T07:10:24;97911.78;;;7.07;62.82
64679;BME280;51094;53.864;27.676;2023-03-15T07:12:50;97935.50;;;7.23;62.35
64679;BME280;51094;53.864;27.676;2023-03-15T07:15:17;97905.78;;;7.06;61.78
64679;BME280;51094;53.864;27.676;2023-03-15T07:17:44;97879.28;;;6.82;61.37
64679;BME280;51094;53.864;27.676;2023-03-15T07:20:11;97944.66;;;7.27;61.60
64679;BME280;51094;53.864;27.676;2023-03-15T07:22:38;97878.19;;;6.95;61.04
64679;BME280;51094;53.864;27.676;2023-03-15T07:25:05;97952.59;;;7.46;61.06
64679;BME280;51094;53.864;27.676;2023-03-15T07:27:33;97971.63;;;7.56;60.72
64679;BME280;51094;53.864;27.676;2023-03-15T07:29:59;97936.44;;;7.33;60.90
64679;BME280;51094;53.864;27.676;2023-03-15T07:32:26;97971.28;;;7.50;60.90
64679;BME280;51094;53.864;27.676;2023-03-15T07:34:53;97903.53;;;7.13;59.75
64679;BME280;51094;53.864;27.676;2023-03-15T07:37:26;97978.31;;;7.70;59.93
64679;BME280;51094;53.864;27.676;2023-03-15T07:39:53;97981.25;;;7.77;60.86
64679;BME280;51094;53.864;27.676;2023-03-15T07:42:19;97985.66;;;7.86;60.76
64679;BME280;51094;53.864;27.676;2023-03-15T07:44:50;97988.84;;;7.89;59.47
64679;BME280;51094;53.864;27.676;2023-03-15T07:47:17;97996.59;;;7.89;59.69
64679;BME280;51094;53.864;27.676;2023-03-15T07:49:45;97987.41;;;7.96;59.38
64679;BME280;51094;53.864;27.676;2023-03-15T07:52:13;97887.84;;;7.37;58.58
64679;BME280;51094;53.864;27.676;2023-03-15T07:54:40;97965.09;;;7.84;58.38
64679;BME280;51094;53.864;27.676;2023-03-15T07:57:07;97942.31;;;7.78;58.94
64679;BME280;51094;53.864;27.676;2023-03-15T07:59:33;97990.34;;;8.24;58.19
64679;BME280;51094;53.864;27.676;2023-03-15T08:02:00;97997.16;;;8.36;57.85
64679;BME280;51094;53.864;27.676;2023-03-15T08:04:28;97903.06;;;7.94;57.84
64679;BME280;51094;53.864;27.676;2023-03-15T08:06:55;97932.31;;;8.06;56.73
64679;BME280;51094;53.864;27.676;2023-03-15T08:09:22;98029.25;;;8.45;56.86
64679;BME280;51094;53.864;27.676;2023-03-15T08:11:50;97923.88;;;7.72;56.15
64679;BME280;51094;53.864;27.676;2023-03-15T08:14:17;98024.84;;;8.24;57.29
64679;BME280;51094;53.864;27.676;2023-03-15T08:16:43;97937.19;;;7.56;57.21
64679;BME280;51094;53.864;27.676;2023-03-15T08:19:10;97994.91;;;7.56;56.71
64679;BME280;51094;53.864;27.676;2023-03-15T08:21:37;98042.47;;;7.87;57.91
64679;BME280;51094;53.864;27.676;2023-03-15T08:24:04;98013.00;;;7.67;57.63
64679;BME280;51094;53.864;27.676;2023-03-15T08:26:31;98048.13;;;7.81;57.82
64679;BME280;51094;53.864;27.676;2023-03-15T08:28:58;98041.06;;;7.94;58.43
64679;BME280;51094;53.864;27.676;2023-03-15T08:31:25;98046.47;;;8.02;57.52
64679;BME280;51094;53.864;27.676;2023-03-15T08:33:52;98044.72;;;7.92;58.18
64679;BME280;51094;53.864;27.676;2023-03-15T08:36:19;97992.69;;;7.63;58.01
64679;BME280;51094;53.864;27.676;2023-03-15T08:38:46;98034.94;;;7.95;57.25
64679;BME280;51094;53.864;27.676;2023-03-15T08:41:13;98073.03;;;8.16;57.82
64679;BME280;51094;53.864;27.676;2023-03-15T08:43:40;97999.19;;;7.89;57.56
64679;BME280;51094;53.864;27.676;2023-03-15T08:46:06;98069.31;;;8.29;57.33
64679;BME280;51094;53.864;27.676;2023-03-15T08:48:33;98068.84;;;8.36;57.78
64679;BME280;51094;53.864;27.676;2023-03-15T08:51:01;98005.03;;;8.02;56.85
64679;BME280;51094;53.864;27.676;2023-03-15T08:53:30;98041.88;;;8.38;56.51
64679;BME280;51094;53.864;27.676;2023-03-15T08:55:57;98055.00;;;8.57;56.73
64679;BME280;51094;53.864;27.676;2023-03-15T08:58:24;98054.81;;;8.49;56.54
64679;BME280;51094;53.864;27.676;2023-03-15T09:00:51;98080.41;;;8.63;56.67
64679;BME280;51094;53.864;27.676;2023-03-15T09:03:19;98028.38;;;8.23;56.60
64679;BME280;51094;53.864;27.676;2023-03-15T09:05:46;98084.94;;;8.50;56.87
64679;BME280;51094;53.864;27.676;2023-03-15T09:08:12;98084.03;;;8.40;57.26
64679;BME280;51094;53.864;27.676;2023-03-15T09:10:39;97941.75;;;7.63;57.52
64679;BME280;51094;53.864;27.676;2023-03-15T09:13:06;98075.63;;;8.59;57.07
64679;BME280;51094;53.864;27.676;2023-03-15T09:15:33;98049.63;;;8.49;56.19
64679;BME280;51094;53.864;27.676;2023-03-15T09:18:00;97972.81;;;7.95;55.97
64679;BME280;51094;53.864;27.676;2023-03-15T09:20:27;98063.19;;;8.30;55.93
64679;BME280;51094;53.864;27.676;2023-03-15T09:22:56;98003.13;;;7.73;56.93
64679;BME280;51094;53.864;27.676;2023-03-15T09:25:24;98056.84;;;7.80;57.32
64679;BME280;51094;53.864;27.676;2023-03-15T09:27:51;98085.78;;;7.96;57.60
64679;BME280;51094;53.864;27.676;2023-03-15T09:30:18;98106.00;;;7.91;58.01
64679;BME280;51094;53.864;27.676;2023-03-15T09:32:46;98087.91;;;7.80;58.60
64679;BME280;51094;53.864;27.676;2023-03-15T09:35:15;98116.13;;;7.94;58.30
64679;BME280;51094;53.864;27.676;2023-03-15T09:37:42;98076.53;;;7.72;58.45
64679;BME280;51094;53.864;27.676;2023-03-15T09:40:28;98122.94;;;8.07;58.59
64679;BME280;51094;53.864;27.676;2023-03-15T09:49:03;98124.19;;;8.34;59.12
64679;BME280;51094;53.864;27.676;2023-03-15T09:54:18;98121.38;;;8.38;58.97
64679;BME280;51094;53.864;27.676;2023-03-15T09:56:59;98102.13;;;8.08;58.27
64679;BME280;51094;53.864;27.676;2023-03-15T09:59:36;98080.47;;;7.98;59.01
64679;BME280;51094;53.864;27.676;2023-03-15T10:02:28;98131.66;;;8.17;59.47
64679;BME280;51094;53.864;27.676;2023-03-15T10:05:10;98082.59;;;7.82;59.44
64679;BME280;51094;53.864;27.676;2023-03-15T10:07:38;98114.47;;;7.93;59.88
64679;BME280;51094;53.864;27.676;2023-03-15T10:10:16;98051.59;;;7.48;60.11
64679;BME280;51094;53.864;27.676;2023-03-15T10:12:50;98157.31;;;7.97;60.52
64679;BME280;51094;53.864;27.676;2023-03-15T10:15:48;98130.25;;;7.46;61.36
64679;BME280;51094;53.864;27.676;2023-03-15T10:21:11;98174.38;;;7.78;62.62
64679;BME280;51094;53.864;27.676;2023-03-15T10:23:52;98185.31;;;7.70;63.09
64679;BME280;51094;53.864;27.676;2023-03-15T10:26:27;98146.91;;;7.19;64.54
64679;BME280;51094;53.864;27.676;2023-03-15T10:28:55;98118.34;;;6.75;65.35
64679;BME280;51094;53.864;27.676;2023-03-15T10:31:25;98217.00;;;7.04;66.91
64679;BME280;51094;53.864;27.676;2023-03-15T10:34:10;98204.81;;;6.82;66.96
64679;BME280;51094;53.864;27.676;2023-03-15T10:36:43;98183.00;;;6.38;67.67
64679;BME280;51094;53.864;27.676;2023-03-15T10:39:11;98192.75;;;6.09;67.21
64679;BME280;51094;53.864;27.676;2023-03-15T10:41:43;98231.75;;;6.30;68.34
64679;BME280;51094;53.864;27.676;2023-03-15T10:44:17;98212.13;;;6.27;68.64
64679;BME280;51094;53.864;27.676;2023-03-15T10:47:05;98265.09;;;6.46;68.07
64679;BME280;51094;53.864;27.676;2023-03-15T10:49:48;98251.69;;;6.28;67.81
64679;BME280;51094;53.864;27.676;2023-03-15T10:52:30;98252.50;;;6.28;68.21
64679;BME280;51094;53.864;27.676;2023-03-15T10:55:15;98109.25;;;5.23;68.57
64679;BME280;51094;53.864;27.676;2023-03-15T10:57:53;98269.59;;;6.06;68.92
64679;BME280;51094;53.864;27.676;2023-03-15T11:00:31;98234.25;;;5.68;68.67
64679;BME280;51094;53.864;27.676;2023-03-15T11:03:22;98275.78;;;5.90;69.31
64679;BME280;51094;53.864;27.676;2023-03-15T11:05:52;98229.88;;;5.30;69.30
64679;BME280;51094;53.864;27.676;2023-03-15T11:08:22;98292.75;;;5.55;69.13
64679;BME280;51094;53.864;27.676;2023-03-15T11:10:57;98306.03;;;5.49;69.76
64679;BME280;51094;53.864;27.676;2023-03-15T11:13:29;98302.13;;;5.56;70.42
64679;BME280;51094;53.864;27.676;2023-03-15T11:21:11;98298.34;;;5.34;69.40
64679;BME280;51094;53.864;27.676;2023-03-15T11:23:47;98345.63;;;5.48;69.39
64679;BME280;51094;53.864;27.676;2023-03-15T11:29:00;98332.00;;;5.46;69.56
64679;BME280;51094;53.864;27.676;2023-03-15T11:31:29;98329.53;;;5.44;69.56
64679;BME280;51094;53.864;27.676;2023-03-15T11:34:05;98362.16;;;5.31;69.38
64679;BME280;51094;53.864;27.676;2023-03-15T11:36:36;98307.38;;;5.15;69.65
64679;BME280;51094;53.864;27.676;2023-03-15T11:39:05;98333.81;;;5.31;70.29
64679;BME280;51094;53.864;27.676;2023-03-15T11:44:26;98352.69;;;5.31;70.88
64679;BME280;51094;53.864;27.676;2023-03-15T11:47:09;98217.16;;;4.48;70.35
64679;BME280;51094;53.864;27.676;2023-03-15T11:49:52;98365.56;;;5.19;69.68
64679;BME280;51094;53.864;27.676;2023-03-15T11:52:21;98353.88;;;5.13;70.12
64679;BME280;51094;53.864;27.676;2023-03-15T11:54:50;98359.56;;;5.18;70.62
64679;BME280;51094;53.864;27.676;2023-03-15T11:57:45;98363.81;;;5.19;70.04
64679;BME280;51094;53.864;27.676;2023-03-15T12:02:57;98374.78;;;5.09;70.39
64679;BME280;51094;53.864;27.676;2023-03-15T12:10:46;98175.72;;;3.55;70.64
64679;BME280;51094;53.864;27.676;2023-03-15T12:13:21;98368.03;;;4.65;70.60
64679;BME280;51094;53.864;27.676;2023-03-15T12:15:49;98366.84;;;4.56;70.18
64679;BME280;51094;53.864;27.676;2023-03-15T12:18:19;98407.56;;;4.64;71.27
64679;BME280;51094;53.864;27.676;2023-03-15T12:20:56;98310.94;;;4.16;70.82
64679;BME280;51094;53.864;27.676;2023-03-15T12:23:47;97994.72;;;2.01;70.50
64679;BME280;51094;53.864;27.676;2023-03-15T12:31:53;98329.47;;;3.92;70.42
64679;BME280;51094;53.864;27.676;2023-03-15T12:37:21;98423.66;;;4.53;71.68
64679;BME280;51094;53.864;27.676;2023-03-15T12:39:58;98418.06;;;4.61;71.16
64679;BME280;51094;53.864;27.676;2023-03-15T12:50:56;98438.72;;;4.45;71.21
64679;BME280;51094;53.864;27.676;2023-03-15T12:58:59;98447.09;;;4.49;71.12
64679;BME280;51094;53.864;27.676;2023-03-15T13:01:30;98433.50;;;4.32;71.10
64679;BME280;51094;53.864;27.676;2023-03-15T13:04:00;98373.56;;;3.86;71.33
64679;BME280;51094;53.864;27.676;2023-03-15T13:06:59;98458.00;;;4.38;71.16
64679;BME280;51094;53.864;27.676;2023-03-15T13:09:48;98469.31;;;4.35;71.95
64679;BME280;51094;53.864;27.676;2023-03-15T13:12:28;98487.88;;;4.26;70.44
64679;BME280;51094;53.864;27.676;2023-03-15T13:15:12;98494.91;;;4.09;71.81
64679;BME280;51094;53.864;27.676;2023-03-15T13:17:50;98484.34;;;4.13;72.71
64679;BME280;51094;53.864;27.676;2023-03-15T13:28:32;98468.72;;;3.86;72.18
64679;BME280;51094;53.864;27.676;2023-03-15T13:33:47;98508.59;;;4.09;72.40
64679;BME280;51094;53.864;27.676;2023-03-15T13:36:18;98486.25;;;4.10;72.12
64679;BME280;51094;53.864;27.676;2023-03-15T13:38:50;98485.34;;;4.11;72.56
64679;BME280;51094;53.864;27.676;2023-03-15T13:41:23;98469.09;;;3.94;72.48
64679;BME280;51094;53.864;27.676;2023-03-15T13:43:52;98500.63;;;4.14;73.01
64679;BME280;51094;53.864;27.676;2023-03-15T13:46:21;98402.50;;;3.60;72.09
64679;BME280;51094;53.864;27.676;2023-03-15T13:48:50;98514.44;;;4.27;72.10
64679;BME280;51094;53.864;27.676;2023-03-15T13:51:26;98514.38;;;4.28;72.53
64679;BME280;51094;53.864;27.676;2023-03-15T13:53:59;98510.91;;;4.14;71.78
64679;BME280;51094;53.864;27.676;2023-03-15T13:59:23;98527.00;;;4.17;72.55
64679;BME280;51094;53.864;27.676;2023-03-15T14:01:52;98523.91;;;4.26;71.91
64679;BME280;51094;53.864;27.676;2023-03-15T14:04:21;98455.81;;;3.72;72.53
64679;BME280;51094;53.864;27.676;2023-03-15T14:06:49;98534.88;;;4.14;72.03
64679;BME280;51094;53.864;27.676;2023-03-15T14:09:21;98537.69;;;4.25;72.86
64679;BME280;51094;53.864;27.676;2023-03-15T14:12:02;98536.88;;;4.25;72.35
64679;BME280;51094;53.864;27.676;2023-03-15T14:14:34;98497.78;;;3.88;71.92
64679;BME280;51094;53.864;27.676;2023-03-15T14:17:06;98519.44;;;4.14;72.39
64679;BME280;51094;53.864;27.676;2023-03-15T14:19:34;98535.81;;;4.13;72.10
64679;BME280;51094;53.864;27.676;2023-03-15T14:22:13;98528.41;;;4.23;72.65
64679;BME280;51094;53.864;27.676;2023-03-15T14:24:42;98510.16;;;4.12;72.42
64679;BME280;51094;53.864;27.676;2023-03-15T14:27:19;98533.88;;;4.17;72.84
64679;BME280;51094;53.864;27.676;2023-03-15T14:29:47;98531.31;;;4.17;72.63
64679;BME280;51094;53.864;27.676;2023-03-15T14:32:49;98483.47;;;3.98;73.16
64679;BME280;51094;53.864;27.676;2023-03-15T14:38:16;98444.44;;;3.76;72.52
64679;BME280;51094;53.864;27.676;2023-03-15T14:40:43;98517.72;;;4.15;72.78